sensor_id;sensor_type;location;lat;lon;timestamp;pressure;altitude;pressure_sealevel;temperature;humidity
42601;BME280;28229;48.856;9.088;2022-09-03T00:00:54;97556.13;;;16.69;57.44
42601;BME280;28229;48.856;9.088;2022-09-03T00:06:17;97554.00;;;16.61;57.16
42601;BME280;28229;48.856;9.088;2022-09-03T00:08:51;97551.91;;;16.58;57.85
42601;BME280;28229;48.856;9.088;2022-09-03T00:11:30;97549.50;;;16.51;58.57
42601;BME280;28229;48.856;9.088;2022-09-03T00:14:03;97548.97;;;16.54;58.23
42601;BME280;28229;48.856;9.088;2022-09-03T00:16:58;97542.31;;;16.52;58.14
42601;BME280;28229;48.856;9.088;2022-09-03T00:19:28;97542.31;;;16.47;59.08
42601;BME280;28229;48.856;9.088;2022-09-03T00:21:59;97547.63;;;16.47;59.25
42601;BME280;28229;48.856;9.088;2022-09-03T00:24:30;97548.44;;;16.42;59.21
42601;BME280;28229;48.856;9.088;2022-09-03T00:27:00;97548.16;;;16.33;58.76
42601;BME280;28229;48.856;9.088;2022-09-03T00:29:40;97543.91;;;16.37;58.38
42601;BME280;28229;48.856;9.088;2022-09-03T00:32:15;97548.16;;;16.33;58.57
42601;BME280;28229;48.856;9.088;2022-09-03T00:34:50;97548.72;;;16.46;57.43
42601;BME280;28229;48.856;9.088;2022-09-03T00:37:20;97551.88;;;16.48;57.58
42601;BME280;28229;48.856;9.088;2022-09-03T00:39:46;97554.00;;;16.41;58.45
42601;BME280;28229;48.856;9.088;2022-09-03T00:50:44;97534.38;;;16.42;59.96
42601;BME280;28229;48.856;9.088;2022-09-03T00:53:18;97540.75;;;16.46;59.80
42601;BME280;28229;48.856;9.088;2022-09-03T00:55:55;97543.13;;;16.37;59.75
42601;BME280;28229;48.856;9.088;2022-09-03T00:58:42;97539.41;;;16.48;59.18
42601;BME280;28229;48.856;9.088;2022-09-03T01:01:17;97542.31;;;16.52;58.64
42601;BME280;28229;48.856;9.088;2022-09-03T01:06:52;97544.97;;;16.52;60.32
42601;BME280;28229;48.856;9.088;2022-09-03T01:09:47;97552.69;;;16.53;60.34
42601;BME280;28229;48.856;9.088;2022-09-03T01:12:34;97545.78;;;16.37;60.72
42601;BME280;28229;48.856;9.088;2022-09-03T01:18:22;97546.00;;;16.25;61.57
42601;BME280;28229;48.856;9.088;2022-09-03T01:26:56;97545.47;;;16.13;62.59
42601;BME280;28229;48.856;9.088;2022-09-03T01:32:07;97536.47;;;16.19;62.57
42601;BME280;28229;48.856;9.088;2022-09-03T01:34:49;97539.66;;;16.31;62.17
42601;BME280;28229;48.856;9.088;2022-09-03T01:40:22;97546.00;;;16.25;62.73
42601;BME280;28229;48.856;9.088;2022-09-03T01:46:09;97534.84;;;16.18;63.27
42601;BME280;28229;48.856;9.088;2022-09-03T01:48:46;97548.69;;;16.15;64.31
42601;BME280;28229;48.856;9.088;2022-09-03T02:00:13;97543.88;;;16.27;63.31
42601;BME280;28229;48.856;9.088;2022-09-03T02:02:44;97550.78;;;16.23;63.35
42601;BME280;28229;48.856;9.088;2022-09-03T02:08:00;97553.72;;;16.11;63.79
42601;BME280;28229;48.856;9.088;2022-09-03T02:10:31;97550.53;;;16.25;63.00
42601;BME280;28229;48.856;9.088;2022-09-03T02:13:26;97560.84;;;16.11;63.86
42601;BME280;28229;48.856;9.088;2022-09-03T02:15:57;97561.09;;;16.09;62.84
42601;BME280;28229;48.856;9.088;2022-09-03T02:18:30;97559.81;;;16.17;62.10
42601;BME280;28229;48.856;9.088;2022-09-03T02:20:59;97556.38;;;16.11;62.56
42601;BME280;28229;48.856;9.088;2022-09-03T02:23:26;97557.13;;;16.02;62.94
42601;BME280;28229;48.856;9.088;2022-09-03T02:25:57;97560.25;;;15.93;64.00
42601;BME280;28229;48.856;9.088;2022-09-03T02:28:25;97558.72;;;15.97;63.44
42601;BME280;28229;48.856;9.088;2022-09-03T02:30:52;97564.28;;;15.96;64.08
42601;BME280;28229;48.856;9.088;2022-09-03T02:33:19;97556.06;;;15.97;64.05
42601;BME280;28229;48.856;9.088;2022-09-03T02:35:45;97560.28;;;15.98;63.94
42601;BME280;28229;48.856;9.088;2022-09-03T02:38:17;97565.34;;;16.05;64.61
42601;BME280;28229;48.856;9.088;2022-09-03T02:40:43;97559.78;;;16.07;64.42
42601;BME280;28229;48.856;9.088;2022-09-03T02:43:35;97558.19;;;15.95;65.39
42601;BME280;28229;48.856;9.088;2022-09-03T02:46:08;97555.50;;;15.90;65.12
42601;BME280;28229;48.856;9.088;2022-09-03T02:48:34;97545.91;;;15.84;65.50
42601;BME280;28229;48.856;9.088;2022-09-03T02:51:00;97544.56;;;15.76;66.17
42601;BME280;28229;48.856;9.088;2022-09-03T02:53:26;97544.84;;;15.80;65.82
42601;BME280;28229;48.856;9.088;2022-09-03T02:55:58;97547.00;;;15.88;65.38
42601;BME280;28229;48.856;9.088;2022-09-03T02:58:24;97540.88;;;15.88;64.93
42601;BME280;28229;48.856;9.088;2022-09-03T03:00:51;97539.00;;;15.78;66.54
42601;BME280;28229;48.856;9.088;2022-09-03T03:03:17;97543.53;;;15.83;66.25
42601;BME280;28229;48.856;9.088;2022-09-03T03:05:51;97555.19;;;15.76;67.08
42601;BME280;28229;48.856;9.088;2022-09-03T03:08:18;97559.13;;;15.69;67.94
42601;BME280;28229;48.856;9.088;2022-09-03T03:10:46;97550.63;;;15.72;67.88
42601;BME280;28229;48.856;9.088;2022-09-03T03:13:14;97540.00;;;15.72;67.71
42601;BME280;28229;48.856;9.088;2022-09-03T03:15:41;97543.19;;;15.64;68.63
42601;BME280;28229;48.856;9.088;2022-09-03T03:18:07;97543.47;;;15.72;68.28
42601;BME280;28229;48.856;9.088;2022-09-03T03:20:37;97548.56;;;15.79;67.33
42601;BME280;28229;48.856;9.088;2022-09-03T03:23:04;97552.84;;;15.85;64.98
42601;BME280;28229;48.856;9.088;2022-09-03T03:25:34;97564.53;;;15.94;64.35
42601;BME280;28229;48.856;9.088;2022-09-03T03:28:01;97555.75;;;15.89;64.42
42601;BME280;28229;48.856;9.088;2022-09-03T03:30:28;97555.47;;;15.85;64.65
42601;BME280;28229;48.856;9.088;2022-09-03T03:32:55;97558.19;;;16.06;62.83
42601;BME280;28229;48.856;9.088;2022-09-03T03:35:21;97556.38;;;16.27;62.03
42601;BME280;28229;48.856;9.088;2022-09-03T03:37:47;97556.63;;;16.15;61.89
42601;BME280;28229;48.856;9.088;2022-09-03T03:40:13;97555.50;;;16.01;63.14
42601;BME280;28229;48.856;9.088;2022-09-03T03:42:40;97557.63;;;15.93;63.50
42601;BME280;28229;48.856;9.088;2022-09-03T03:45:06;97562.19;;;16.13;62.90
42601;BME280;28229;48.856;9.088;2022-09-03T03:47:33;97562.44;;;16.07;62.87
42601;BME280;28229;48.856;9.088;2022-09-03T03:49:59;97557.66;;;16.09;63.04
42601;BME280;28229;48.856;9.088;2022-09-03T03:52:25;97553.72;;;16.32;61.79
42601;BME280;28229;48.856;9.088;2022-09-03T03:54:52;97556.09;;;16.23;61.53
42601;BME280;28229;48.856;9.088;2022-09-03T03:57:19;97560.91;;;16.31;61.16
42601;BME280;28229;48.856;9.088;2022-09-03T03:59:46;97565.94;;;16.33;60.73
42601;BME280;28229;48.856;9.088;2022-09-03T04:02:13;97564.59;;;16.30;60.94
42601;BME280;28229;48.856;9.088;2022-09-03T04:04:39;97563.81;;;16.25;60.86
42601;BME280;28229;48.856;9.088;2022-09-03T04:07:05;97558.75;;;16.18;61.28
42601;BME280;28229;48.856;9.088;2022-09-03T04:09:32;97551.88;;;16.22;61.28
42601;BME280;28229;48.856;9.088;2022-09-03T04:11:59;97560.34;;;16.19;61.78
42601;BME280;28229;48.856;9.088;2022-09-03T04:14:25;97553.97;;;16.15;61.92
42601;BME280;28229;48.856;9.088;2022-09-03T04:16:52;97556.59;;;16.05;62.27
42601;BME280;28229;48.856;9.088;2022-09-03T04:19:18;97555.06;;;16.24;61.41
42601;BME280;28229;48.856;9.088;2022-09-03T04:21:44;97567.28;;;16.35;61.34
42601;BME280;28229;48.856;9.088;2022-09-03T04:24:10;97565.16;;;16.37;61.02
42601;BME280;28229;48.856;9.088;2022-09-03T04:26:36;97559.84;;;16.37;61.09
42601;BME280;28229;48.856;9.088;2022-09-03T04:29:05;97552.94;;;16.26;61.52
42601;BME280;28229;48.856;9.088;2022-09-03T04:31:32;97553.19;;;16.25;61.65
42601;BME280;28229;48.856;9.088;2022-09-03T04:33:58;97556.13;;;16.28;61.98
42601;BME280;28229;48.856;9.088;2022-09-03T04:36:26;97565.66;;;16.24;62.01
42601;BME280;28229;48.856;9.088;2022-09-03T04:38:54;97556.66;;;16.35;61.90
42601;BME280;28229;48.856;9.088;2022-09-03T04:41:23;97554.50;;;16.32;61.73
42601;BME280;28229;48.856;9.088;2022-09-03T04:43:53;97567.81;;;16.37;61.52
42601;BME280;28229;48.856;9.088;2022-09-03T04:46:21;97563.56;;;16.36;61.89
42601;BME280;28229;48.856;9.088;2022-09-03T04:48:50;97556.13;;;16.39;61.44
42601;BME280;28229;48.856;9.088;2022-09-03T04:51:18;97561.41;;;16.28;62.17
42601;BME280;28229;48.856;9.088;2022-09-03T04:53:46;97563.56;;;16.42;62.00
42601;BME280;28229;48.856;9.088;2022-09-03T04:56:28;97560.94;;;16.42;61.72
42601;BME280;28229;48.856;9.088;2022-09-03T04:58:58;97565.94;;;16.43;61.85
42601;BME280;28229;48.856;9.088;2022-09-03T05:01:26;97561.19;;;16.45;62.09
42601;BME280;28229;48.856;9.088;2022-09-03T05:03:54;97566.78;;;16.49;61.94
42601;BME280;28229;48.856;9.088;2022-09-03T05:06:20;97568.31;;;16.40;62.48
42601;BME280;28229;48.856;9.088;2022-09-03T05:08:49;97560.38;;;16.45;62.06
42601;BME280;28229;48.856;9.088;2022-09-03T05:11:16;97563.84;;;16.40;62.89
42601;BME280;28229;48.856;9.088;2022-09-03T05:13:42;97561.97;;;16.35;62.53
42601;BME280;28229;48.856;9.088;2022-09-03T05:16:09;97561.47;;;16.49;62.65
42601;BME280;28229;48.856;9.088;2022-09-03T05:18:36;97568.06;;;16.46;62.47
42601;BME280;28229;48.856;9.088;2022-09-03T05:21:09;97573.66;;;16.45;63.25
42601;BME280;28229;48.856;9.088;2022-09-03T05:23:37;97578.19;;;16.49;64.08
42601;BME280;28229;48.856;9.088;2022-09-03T05:26:05;97564.63;;;16.46;64.41
42601;BME280;28229;48.856;9.088;2022-09-03T05:28:35;97564.63;;;16.61;63.53
42601;BME280;28229;48.856;9.088;2022-09-03T05:33:32;97576.34;;;16.75;63.57
42601;BME280;28229;48.856;9.088;2022-09-03T05:36:07;97576.84;;;16.57;64.62
42601;BME280;28229;48.856;9.088;2022-09-03T05:38:33;97574.72;;;16.54;65.02
42601;BME280;28229;48.856;9.088;2022-09-03T05:41:01;97573.66;;;16.50;65.58
42601;BME280;28229;48.856;9.088;2022-09-03T05:43:28;97570.47;;;16.48;67.02
42601;BME280;28229;48.856;9.088;2022-09-03T05:46:05;97573.69;;;16.60;66.10
42601;BME280;28229;48.856;9.088;2022-09-03T05:48:32;97581.09;;;16.68;65.24
42601;BME280;28229;48.856;9.088;2022-09-03T05:53:29;97574.22;;;16.78;64.35
42601;BME280;28229;48.856;9.088;2022-09-03T05:56:23;97574.78;;;16.85;63.92
42601;BME280;28229;48.856;9.088;2022-09-03T05:58:51;97585.41;;;16.85;64.48
42601;BME280;28229;48.856;9.088;2022-09-03T06:03:46;97593.34;;;17.10;62.54
42601;BME280;28229;48.856;9.088;2022-09-03T06:06:13;97601.84;;;17.07;62.61
42601;BME280;28229;48.856;9.088;2022-09-03T06:08:40;97594.69;;;17.08;62.89
42601;BME280;28229;48.856;9.088;2022-09-03T06:11:07;97597.59;;;17.06;62.80
42601;BME280;28229;48.856;9.088;2022-09-03T06:13:33;97592.81;;;16.98;63.48
42601;BME280;28229;48.856;9.088;2022-09-03T06:16:02;97597.09;;;16.89;64.04
42601;BME280;28229;48.856;9.088;2022-09-03T06:18:29;97592.28;;;16.96;63.82
42601;BME280;28229;48.856;9.088;2022-09-03T06:20:56;97587.50;;;16.93;64.01
42601;BME280;28229;48.856;9.088;2022-09-03T06:23:23;97599.47;;;16.90;64.15
42601;BME280;28229;48.856;9.088;2022-09-03T06:26:06;97593.38;;;16.90;64.71
42601;BME280;28229;48.856;9.088;2022-09-03T06:28:33;97599.22;;;16.92;65.00
42601;BME280;28229;48.856;9.088;2022-09-03T06:31:01;97602.94;;;17.01;64.62
42601;BME280;28229;48.856;9.088;2022-09-03T06:33:29;97607.97;;;17.13;64.62
42601;BME280;28229;48.856;9.088;2022-09-03T06:35:56;97597.59;;;17.17;64.22
42601;BME280;28229;48.856;9.088;2022-09-03T06:38:30;97603.41;;;17.39;63.68
42601;BME280;28229;48.856;9.088;2022-09-03T06:40:58;97597.28;;;17.49;63.03
42601;BME280;28229;48.856;9.088;2022-09-03T06:43:30;97604.44;;;17.48;63.19
42601;BME280;28229;48.856;9.088;2022-09-03T06:46:03;97603.13;;;17.51;63.58
42601;BME280;28229;48.856;9.088;2022-09-03T06:48:31;97609.22;;;17.51;63.71
42601;BME280;28229;48.856;9.088;2022-09-03T06:51:04;97612.69;;;17.47;64.17
42601;BME280;28229;48.856;9.088;2022-09-03T06:53:34;97609.22;;;17.46;64.05
42601;BME280;28229;48.856;9.088;2022-09-03T06:56:03;97607.38;;;17.47;64.45
42601;BME280;28229;48.856;9.088;2022-09-03T06:58:34;97607.66;;;17.50;64.11
42601;BME280;28229;48.856;9.088;2022-09-03T07:01:04;97612.91;;;17.61;64.05
42601;BME280;28229;48.856;9.088;2022-09-03T07:03:34;97606.78;;;17.65;63.78
42601;BME280;28229;48.856;9.088;2022-09-03T07:06:09;97603.03;;;17.72;65.12
42601;BME280;28229;48.856;9.088;2022-09-03T07:08:35;97609.13;;;17.82;64.76
42601;BME280;28229;48.856;9.088;2022-09-03T07:11:04;97599.28;;;17.83;64.38
42601;BME280;28229;48.856;9.088;2022-09-03T07:13:41;97605.13;;;17.95;64.35
42601;BME280;28229;48.856;9.088;2022-09-03T07:16:10;97611.50;;;17.94;63.77
42601;BME280;28229;48.856;9.088;2022-09-03T07:18:37;97605.41;;;17.88;63.62
42601;BME280;28229;48.856;9.088;2022-09-03T07:21:05;97613.91;;;17.91;64.56
42601;BME280;28229;48.856;9.088;2022-09-03T07:23:32;97615.50;;;17.97;64.64
42601;BME280;28229;48.856;9.088;2022-09-03T07:26:00;97619.47;;;17.99;64.94
42601;BME280;28229;48.856;9.088;2022-09-03T07:28:28;97609.59;;;18.05;64.28
42601;BME280;28229;48.856;9.088;2022-09-03T07:31:10;97615.41;;;18.17;64.83
42601;BME280;28229;48.856;9.088;2022-09-03T07:33:41;97615.88;;;18.24;64.91
42601;BME280;28229;48.856;9.088;2022-09-03T07:36:12;97617.41;;;18.36;64.35
42601;BME280;28229;48.856;9.088;2022-09-03T07:38:40;97616.91;;;18.34;64.15
42601;BME280;28229;48.856;9.088;2022-09-03T07:41:08;97619.03;;;18.37;64.67
42601;BME280;28229;48.856;9.088;2022-09-03T07:43:39;97619.22;;;18.45;64.91
42601;BME280;28229;48.856;9.088;2022-09-03T07:46:06;97622.06;;;18.64;64.34
42601;BME280;28229;48.856;9.088;2022-09-03T07:48:33;97620.19;;;18.65;65.02
42601;BME280;28229;48.856;9.088;2022-09-03T07:50:59;97627.38;;;18.64;64.89
42601;BME280;28229;48.856;9.088;2022-09-03T07:53:27;97627.88;;;18.72;64.63
42601;BME280;28229;48.856;9.088;2022-09-03T07:56:00;97629.84;;;18.95;64.01
42601;BME280;28229;48.856;9.088;2022-09-03T07:58:28;97633.19;;;19.11;63.69
42601;BME280;28229;48.856;9.088;2022-09-03T08:00:54;97628.00;;;19.25;63.00
42601;BME280;28229;48.856;9.088;2022-09-03T08:03:22;97628.69;;;19.36;62.76
42601;BME280;28229;48.856;9.088;2022-09-03T08:05:47;97635.75;;;19.51;62.42
42601;BME280;28229;48.856;9.088;2022-09-03T08:08:13;97627.34;;;19.63;62.42
42601;BME280;28229;48.856;9.088;2022-09-03T08:10:40;97632.09;;;19.66;61.82
42601;BME280;28229;48.856;9.088;2022-09-03T08:13:06;97640.84;;;19.71;61.96
42601;BME280;28229;48.856;9.088;2022-09-03T08:15:33;97645.13;;;19.72;62.35
42601;BME280;28229;48.856;9.088;2022-09-03T08:17:59;97643.66;;;19.85;62.18
42601;BME280;28229;48.856;9.088;2022-09-03T08:20:26;97648.09;;;19.95;62.03
42601;BME280;28229;48.856;9.088;2022-09-03T08:22:59;97650.78;;;19.95;61.90
42601;BME280;28229;48.856;9.088;2022-09-03T08:25:25;97652.31;;;19.77;61.72
42601;BME280;28229;48.856;9.088;2022-09-03T08:27:51;97657.69;;;19.72;62.21
42601;BME280;28229;48.856;9.088;2022-09-03T08:30:17;97655.53;;;19.74;61.87
42601;BME280;28229;48.856;9.088;2022-09-03T08:32:43;97660.88;;;19.74;61.54
42601;BME280;28229;48.856;9.088;2022-09-03T08:35:09;97655.53;;;19.74;62.01
42601;BME280;28229;48.856;9.088;2022-09-03T08:37:35;97658.38;;;19.83;61.73
42601;BME280;28229;48.856;9.088;2022-09-03T08:40:01;97660.09;;;19.73;61.79
42601;BME280;28229;48.856;9.088;2022-09-03T08:42:40;97657.94;;;19.75;61.42
42601;BME280;28229;48.856;9.088;2022-09-03T08:45:15;97656.22;;;19.85;60.83
42601;BME280;28229;48.856;9.088;2022-09-03T08:47:45;97668.88;;;19.98;60.75
42601;BME280;28229;48.856;9.088;2022-09-03T08:52:50;97668.16;;;20.16;60.02
42601;BME280;28229;48.856;9.088;2022-09-03T09:03:30;97681.38;;;20.46;58.86
42601;BME280;28229;48.856;9.088;2022-09-03T09:06:20;97692.34;;;20.25;59.57
42601;BME280;28229;48.856;9.088;2022-09-03T09:09:25;97690.53;;;20.21;60.10
42601;BME280;28229;48.856;9.088;2022-09-03T09:17:53;97699.38;;;20.40;58.60
42601;BME280;28229;48.856;9.088;2022-09-03T09:23:13;97689.50;;;20.60;57.26
42601;BME280;28229;48.856;9.088;2022-09-03T09:25:49;97694.50;;;20.85;57.18
42601;BME280;28229;48.856;9.088;2022-09-03T09:28:29;97691.25;;;21.07;55.78
42601;BME280;28229;48.856;9.088;2022-09-03T09:31:00;97688.31;;;21.23;54.88
42601;BME280;28229;48.856;9.088;2022-09-03T09:33:29;97689.81;;;21.29;53.65
42601;BME280;28229;48.856;9.088;2022-09-03T09:36:06;97684.19;;;21.30;54.55
42601;BME280;28229;48.856;9.088;2022-09-03T09:38:36;97685.16;;;21.35;54.90
42601;BME280;28229;48.856;9.088;2022-09-03T09:41:15;97688.03;;;21.57;55.02
42601;BME280;28229;48.856;9.088;2022-09-03T09:43:42;97682.69;;;21.85;54.45
42601;BME280;28229;48.856;9.088;2022-09-03T09:46:12;97676.75;;;22.02;54.03
42601;BME280;28229;48.856;9.088;2022-09-03T09:48:46;97678.94;;;22.00;53.17
42601;BME280;28229;48.856;9.088;2022-09-03T09:51:20;97666.34;;;22.00;52.45
42601;BME280;28229;48.856;9.088;2022-09-03T09:53:47;97665.66;;;22.09;52.14
42601;BME280;28229;48.856;9.088;2022-09-03T09:56:24;97668.78;;;22.24;52.68
42601;BME280;28229;48.856;9.088;2022-09-03T09:59:07;97676.75;;;22.16;52.81
42601;BME280;28229;48.856;9.088;2022-09-03T10:01:37;97673.19;;;22.06;52.62
42601;BME280;28229;48.856;9.088;2022-09-03T10:04:23;97680.63;;;21.96;52.05
42601;BME280;28229;48.856;9.088;2022-09-03T10:07:26;97685.69;;;21.97;52.02
42601;BME280;28229;48.856;9.088;2022-09-03T10:10:04;97687.06;;;22.22;51.70
42601;BME280;28229;48.856;9.088;2022-09-03T10:12:57;97680.25;;;22.67;50.63
42601;BME280;28229;48.856;9.088;2022-09-03T10:20:33;97669.75;;;23.15;48.99
42601;BME280;28229;48.856;9.088;2022-09-03T10:23:08;97662.13;;;23.31;48.42
42601;BME280;28229;48.856;9.088;2022-09-03T10:26:27;97657.88;;;23.62;47.52
42601;BME280;28229;48.856;9.088;2022-09-03T10:28:33;97663.75;;;23.64;47.77
42601;BME280;28229;48.856;9.088;2022-09-03T10:36:56;97658.97;;;23.92;47.09
42601;BME280;28229;48.856;9.088;2022-09-03T10:42:45;97650.22;;;24.52;45.46
42601;BME280;28229;48.856;9.088;2022-09-03T10:50:58;97648.97;;;25.29;43.04
42601;BME280;28229;48.856;9.088;2022-09-03T11:05:32;97642.28;;;25.35;42.54
42601;BME280;28229;48.856;9.088;2022-09-03T11:08:17;97638.97;;;25.29;43.30
42601;BME280;28229;48.856;9.088;2022-09-03T11:10:50;97635.34;;;25.34;42.51
42601;BME280;28229;48.856;9.088;2022-09-03T11:13:24;97629.00;;;25.30;43.02
42601;BME280;28229;48.856;9.088;2022-09-03T11:15:58;97625.97;;;25.31;42.62
42601;BME280;28229;48.856;9.088;2022-09-03T11:18:30;97620.78;;;25.26;42.68
42601;BME280;28229;48.856;9.088;2022-09-03T11:21:03;97622.50;;;25.13;43.65
42601;BME280;28229;48.856;9.088;2022-09-03T11:23:32;97628.25;;;25.12;43.55
42601;BME280;28229;48.856;9.088;2022-09-03T11:26:06;97632.81;;;25.02;43.59
42601;BME280;28229;48.856;9.088;2022-09-03T11:29:00;97625.56;;;24.94;43.98
42601;BME280;28229;48.856;9.088;2022-09-03T11:31:54;97618.72;;;25.14;43.93
42601;BME280;28229;48.856;9.088;2022-09-03T11:37:18;97623.16;;;25.19;43.52
42601;BME280;28229;48.856;9.088;2022-09-03T11:39:53;97625.19;;;25.13;43.19
42601;BME280;28229;48.856;9.088;2022-09-03T11:42:27;97630.44;;;25.01;43.19
42601;BME280;28229;48.856;9.088;2022-09-03T11:44:59;97614.34;;;24.83;43.92
42601;BME280;28229;48.856;9.088;2022-09-03T11:47:46;97615.28;;;24.79;44.35
42601;BME280;28229;48.856;9.088;2022-09-03T11:50:22;97618.44;;;24.89;43.99
42601;BME280;28229;48.856;9.088;2022-09-03T11:52:51;97610.38;;;24.89;44.09
42601;BME280;28229;48.856;9.088;2022-09-03T12:00:55;97615.78;;;24.63;45.05
42601;BME280;28229;48.856;9.088;2022-09-03T12:03:34;97624.66;;;24.55;45.09
42601;BME280;28229;48.856;9.088;2022-09-03T12:12:13;97643.25;;;24.34;45.50
42601;BME280;28229;48.856;9.088;2022-09-03T12:19:55;97629.91;;;24.03;46.26
42601;BME280;28229;48.856;9.088;2022-09-03T12:22:27;97642.66;;;23.88;46.76
42601;BME280;28229;48.856;9.088;2022-09-03T12:24:54;97651.56;;;23.66;47.69
42601;BME280;28229;48.856;9.088;2022-09-03T12:27:26;97650.97;;;23.69;47.15
42601;BME280;28229;48.856;9.088;2022-09-03T12:29:55;97658.47;;;23.50;47.62
42601;BME280;28229;48.856;9.088;2022-09-03T12:32:29;97667.41;;;23.45;48.41
42601;BME280;28229;48.856;9.088;2022-09-03T12:34:57;97672.09;;;23.31;48.80
42601;BME280;28229;48.856;9.088;2022-09-03T12:37:25;97673.69;;;23.09;49.85
42601;BME280;28229;48.856;9.088;2022-09-03T12:39:55;97684.38;;;22.87;51.61
42601;BME280;28229;48.856;9.088;2022-09-03T12:42:29;97689.53;;;22.60;54.32
42601;BME280;28229;48.856;9.088;2022-09-03T12:45:06;97693.84;;;21.26;60.78
42601;BME280;28229;48.856;9.088;2022-09-03T12:47:38;97686.38;;;20.52;64.92
42601;BME280;28229;48.856;9.088;2022-09-03T12:50:10;97704.44;;;19.64;67.50
42601;BME280;28229;48.856;9.088;2022-09-03T12:55:24;97708.22;;;18.89;69.53
42601;BME280;28229;48.856;9.088;2022-09-03T13:00:28;97707.66;;;18.42;71.83
42601;BME280;28229;48.856;9.088;2022-09-03T13:05:48;97686.91;;;18.39;71.10
42601;BME280;28229;48.856;9.088;2022-09-03T13:08:48;97688.72;;;18.49;72.13
42601;BME280;28229;48.856;9.088;2022-09-03T13:11:19;97692.38;;;18.63;72.08
42601;BME280;28229;48.856;9.088;2022-09-03T13:14:01;97694.00;;;18.64;72.45
42601;BME280;28229;48.856;9.088;2022-09-03T13:19:15;97697.97;;;18.67;75.43
42601;BME280;28229;48.856;9.088;2022-09-03T13:32:22;97699.56;;;19.13;73.90
42601;BME280;28229;48.856;9.088;2022-09-03T13:35:00;97690.19;;;19.45;71.38
42601;BME280;28229;48.856;9.088;2022-09-03T13:37:47;97685.59;;;19.55;72.66
42601;BME280;28229;48.856;9.088;2022-09-03T13:40:18;97677.19;;;19.67;71.48
42601;BME280;28229;48.856;9.088;2022-09-03T13:42:52;97680.38;;;19.69;71.33
42601;BME280;28229;48.856;9.088;2022-09-03T13:45:44;97676.41;;;19.67;72.07
42601;BME280;28229;48.856;9.088;2022-09-03T13:48:17;97677.75;;;19.64;72.42
42601;BME280;28229;48.856;9.088;2022-09-03T13:54:07;97674.22;;;19.98;70.83
42601;BME280;28229;48.856;9.088;2022-09-03T13:56:54;97661.25;;;20.10;71.44
42601;BME280;28229;48.856;9.088;2022-09-03T13:59:55;97664.00;;;20.48;72.15
42601;BME280;28229;48.856;9.088;2022-09-03T14:02:49;97645.59;;;20.66;68.85
42601;BME280;28229;48.856;9.088;2022-09-03T14:08:22;97665.91;;;20.67;67.70
42601;BME280;28229;48.856;9.088;2022-09-03T14:10:51;97648.22;;;20.28;70.20
42601;BME280;28229;48.856;9.088;2022-09-03T14:18:58;97655.69;;;20.31;71.75
42601;BME280;28229;48.856;9.088;2022-09-03T14:21:34;97658.91;;;20.28;71.64
42601;BME280;28229;48.856;9.088;2022-09-03T14:24:21;97655.22;;;20.24;72.27
42601;BME280;28229;48.856;9.088;2022-09-03T14:26:52;97653.25;;;20.10;73.02
42601;BME280;28229;48.856;9.088;2022-09-03T14:29:23;97657.53;;;20.11;74.13
42601;BME280;28229;48.856;9.088;2022-09-03T14:37:06;97662.69;;;19.78;74.48
42601;BME280;28229;48.856;9.088;2022-09-03T14:45:46;97692.63;;;19.75;76.32
42601;BME280;28229;48.856;9.088;2022-09-03T14:51:12;97692.63;;;19.75;77.21
42601;BME280;28229;48.856;9.088;2022-09-03T15:02:15;97693.72;;;19.99;76.88
42601;BME280;28229;48.856;9.088;2022-09-03T15:12:33;97684.41;;;20.82;76.86
42601;BME280;28229;48.856;9.088;2022-09-03T15:15:06;97677.38;;;21.19;75.83
42601;BME280;28229;48.856;9.088;2022-09-03T15:20:20;97682.31;;;21.92;70.89
42601;BME280;28229;48.856;9.088;2022-09-03T15:28:52;97689.22;;;22.62;67.46
42601;BME280;28229;48.856;9.088;2022-09-03T15:34:07;97693.66;;;22.30;66.32
42601;BME280;28229;48.856;9.088;2022-09-03T15:36:40;97695.41;;;22.35;66.65
42601;BME280;28229;48.856;9.088;2022-09-03T15:39:17;97688.06;;;22.40;66.11
42601;BME280;28229;48.856;9.088;2022-09-03T15:41:51;97688.03;;;22.54;65.42
42601;BME280;28229;48.856;9.088;2022-09-03T15:44:21;97683.97;;;22.57;65.58
42601;BME280;28229;48.856;9.088;2022-09-03T15:46:52;97682.75;;;22.63;65.81
42601;BME280;28229;48.856;9.088;2022-09-03T15:49:30;97698.06;;;22.62;65.97
42601;BME280;28229;48.856;9.088;2022-09-03T15:55:10;97696.81;;;22.46;65.06
42601;BME280;28229;48.856;9.088;2022-09-03T16:00:18;97690.84;;;22.08;66.59
42601;BME280;28229;48.856;9.088;2022-09-03T16:02:52;97691.53;;;21.99;67.64
42601;BME280;28229;48.856;9.088;2022-09-03T16:10:41;97692.59;;;21.71;68.30
42601;BME280;28229;48.856;9.088;2022-09-03T16:13:26;97692.69;;;21.65;68.30
42601;BME280;28229;48.856;9.088;2022-09-03T16:16:05;97700.41;;;21.53;69.09
42601;BME280;28229;48.856;9.088;2022-09-03T16:18:45;97695.38;;;21.33;70.66
42601;BME280;28229;48.856;9.088;2022-09-03T16:23:57;97700.31;;;21.25;71.21
42601;BME280;28229;48.856;9.088;2022-09-03T16:26:35;97685.22;;;21.16;71.59
42601;BME280;28229;48.856;9.088;2022-09-03T16:29:07;97692.03;;;21.08;72.37
42601;BME280;28229;48.856;9.088;2022-09-03T16:40:20;97683.16;;;21.26;72.00
42601;BME280;28229;48.856;9.088;2022-09-03T16:43:10;97687.50;;;21.22;72.85
42601;BME280;28229;48.856;9.088;2022-09-03T16:57:23;97694.53;;;21.18;74.10
42601;BME280;28229;48.856;9.088;2022-09-03T17:00:09;97690.44;;;21.07;72.75
42601;BME280;28229;48.856;9.088;2022-09-03T17:05:39;97689.44;;;21.03;73.08
42601;BME280;28229;48.856;9.088;2022-09-03T17:10:52;97692.34;;;20.87;74.85
42601;BME280;28229;48.856;9.088;2022-09-03T17:18:47;97688.34;;;20.66;75.49
42601;BME280;28229;48.856;9.088;2022-09-03T17:21:38;97697.41;;;20.70;75.00
42601;BME280;28229;48.856;9.088;2022-09-03T17:26:56;97694.13;;;20.54;75.89
42601;BME280;28229;48.856;9.088;2022-09-03T17:33:06;97701.03;;;20.36;76.76
42601;BME280;28229;48.856;9.088;2022-09-03T17:36:02;97705.94;;;20.29;77.12